EDSBEDDN

Guest
Details From EDSB - Karlsruhe Baden Baden
To EDDN - Nurnberg
Flight Number -
Tags generated
Created
Modified
Stats Distance 125 nm / 232 km
Max Altitude 3,700 ft / 1,128 m
Waypoints 3
Social Downloads 1
Likes 0
Share VATSIM

Download

Looking for another format? Having issues loading an existing format? Contact us
Advertisement - Login to hide

Notes

Basic altitude profile: - Ascent Rate: 2500ft/min - Ascent Speed: 250kts - Cruise Altitude: 35000ft - Cruise Speed: 420kts - Descent Rate: 1500ft/min - Descent Speed: 250kts Options: - Use NATs: yes - Use PACOTS: yes - Use low airways: yes - Use high airways: yes

Route

EDSB NORAS EDDN

ID Type Via Altitude Latitude Longitude Leg Dist Tot Dist Heading (true) Name
O EDSB APT - 0 ft / 0 m 48.77926˚ 8.08064˚ - 0 nm - Karlsruhe Baden Baden
NORAS FIX - 3,700 ft / 1,128 m 49.40667˚ 10.64917˚ 107 nm 107 nm 69° / 71° -
O EDDN APT - 0 ft / 0 m 49.49874˚ 11.07758˚ 17 nm 125 nm 72° / 72° Nurnberg

Altitude Profile

Advertisement - Login to hide

EDSB

Details ICAO EDSB (FKB)
Name Karlsruhe Baden Baden
Region Germany - Civil
Timezone Europe/Berlin (UTC+2.0)
Stats Elevation 408 ft / 124 m (AMSL)
Location 48.779257° 8.080642°
Runways 1
Magnetic Variation 2.279° E

METAR

EDSB 252250Z AUTO 03005KT 9999 // NCD 17/15 Q1017

Decode

TAF

TAF TAF EDSB 252202Z 2522/2618 CNL

Decode

Departure Runways

ID Width Length Bearing (true) Bearing (mag) Surface Threshold Offset Overrun Length
03 148 ft / 45 m 9,799 ft / 2,987 m 31.69° 29.41° Asphalt 830 ft / 253 m 115 ft / 35 m
21 148 ft / 45 m 9,799 ft / 2,987 m 211.70° 209.42° Asphalt 830 ft / 253 m 115 ft / 35 m

EDDN

Details ICAO EDDN (NUE)
Name Nurnberg
Region Germany - Civil
Timezone Europe/Berlin (UTC+2.0)
Stats Elevation 1,045 ft / 319 m (AMSL)
Location 49.498744° 11.077580°
Runways 1
Magnetic Variation 3.075° E

METAR

EDDN 252320Z 10003KT CAVOK 14/13 Q1020

Decode

TAF

TAF EDDN 251700Z 2518/2618 08004KT CAVOK PROB30 TEMPO 2602/2606 4000 BCFG

Decode

Destination Runways

ID Width Length Bearing (true) Bearing (mag) Surface Threshold Offset Overrun Length
10 148 ft / 45 m 8,819 ft / 2,688 m 98.60° 95.53° Asphalt 0 ft / 0 m 0 ft / 0 m
28 148 ft / 45 m 8,819 ft / 2,688 m 278.63° 275.56° Asphalt 0 ft / 0 m 0 ft / 0 m

Approach Navaids

Runway Type Ident Frequency Range Bearing (true) Bearing (mag) Slope Elevation
10 Localiser INUE 111.30 MHz 18 nm / 33 km 98.64° 95.56° - 1,046 ft / 319 m (AMSL)
10 Glidescope INUE 111.30 MHz 10 nm / 19 km 98.61° 95.54° 3.00° 1,022 ft / 312 m (AMSL)
28 Localiser INUW 109.10 MHz 23 nm / 43 km 278.59° 275.51° - 1,122 ft / 342 m (AMSL)
28 Glidescope INUW 109.10 MHz 10 nm / 19 km 278.62° 275.54° 3.00° 1,046 ft / 319 m (AMSL)

Popular Alternatives